createdAt,value
2022-09-28T00:01:18.900Z,86.90
2022-09-28T00:03:49.067Z,86.81
2022-09-28T00:06:19.814Z,86.87
2022-09-28T00:08:50.221Z,86.91
2022-09-28T00:11:20.792Z,86.93
2022-09-28T00:13:51.781Z,86.86
2022-09-28T00:16:22.349Z,86.82
2022-09-28T00:18:53.091Z,86.76
2022-09-28T00:21:23.515Z,86.64
2022-09-28T00:24:11.510Z,86.59
2022-09-28T00:26:52.383Z,86.86
2022-09-28T00:29:29.268Z,86.67
2022-09-28T00:32:03.098Z,86.59
2022-09-28T00:34:40.743Z,86.52
2022-09-28T00:37:09.470Z,86.50
2022-09-28T00:39:38.533Z,86.59
2022-09-28T00:42:13.596Z,86.55
2022-09-28T00:44:48.188Z,86.51
2022-09-28T00:47:38.121Z,86.49
2022-09-28T00:50:05.743Z,86.85
2022-09-28T00:52:40.821Z,86.61
2022-09-28T00:55:16.632Z,86.57
2022-09-28T00:57:49.451Z,86.08
2022-09-28T01:00:17.640Z,86.19
2022-09-28T01:02:46.093Z,86.78
2022-09-28T01:05:15.071Z,87.09
2022-09-28T01:07:46.560Z,87.02
2022-09-28T01:10:15.631Z,87.23
2022-09-28T01:12:43.751Z,87.14
2022-09-28T01:15:11.707Z,87.01
2022-09-28T01:17:55.962Z,87.23
2022-09-28T01:20:58.561Z,87.21
2022-09-28T01:23:50.530Z,87.22
2022-09-28T01:26:43.595Z,87.07
2022-09-28T01:29:34.089Z,86.99
2022-09-28T01:32:46.588Z,86.92
2022-09-28T01:35:20.851Z,87.06
2022-09-28T01:38:05.862Z,87.48
2022-09-28T01:40:35.225Z,87.20
2022-09-28T01:43:10.955Z,86.99
2022-09-28T01:45:42.557Z,86.90
2022-09-28T01:48:13.296Z,87.06
2022-09-28T01:50:44.179Z,87.01
2022-09-28T01:53:19.316Z,87.32
2022-09-28T01:56:02.167Z,86.75
2022-09-28T01:58:33.142Z,86.27
2022-09-28T02:01:17.041Z,85.90
2022-09-28T02:03:51.339Z,85.79
2022-09-28T02:06:26.251Z,86.11
2022-09-28T02:08:59.419Z,86.28
2022-09-28T02:11:28.212Z,86.82
2022-09-28T02:14:04.386Z,86.86
2022-09-28T02:16:32.161Z,86.81
2022-09-28T02:19:00.346Z,87.10
2022-09-28T02:21:43.076Z,86.84
2022-09-28T02:24:21.261Z,86.83
2022-09-28T02:26:50.819Z,86.54
2022-09-28T02:29:18.792Z,86.73
2022-09-28T02:31:46.724Z,86.93
2022-09-28T02:34:14.365Z,86.87
2022-09-28T02:36:42.244Z,86.67
2022-09-28T02:39:19.712Z,86.54
2022-09-28T02:42:01.639Z,86.64
2022-09-28T02:44:54.551Z,86.91
2022-09-28T02:47:31.271Z,87.02
2022-09-28T02:50:18.140Z,87.05
2022-09-28T02:52:55.877Z,86.79
2022-09-28T02:56:04.905Z,86.56
2022-09-28T02:58:50.925Z,86.31
2022-09-28T03:01:18.688Z,86.40
2022-09-28T03:03:53.223Z,86.57
2022-09-28T03:06:59.691Z,86.45
2022-09-28T03:09:53.370Z,86.55
2022-09-28T03:12:24.475Z,86.21
2022-09-28T03:15:10.212Z,86.49
2022-09-28T03:17:38.440Z,86.86
2022-09-28T03:20:06.728Z,86.63
2022-09-28T03:22:34.449Z,86.94
2022-09-28T03:25:02.190Z,87.18
2022-09-28T03:27:29.675Z,87.02
2022-09-28T03:29:57.174Z,86.68
2022-09-28T03:32:25.281Z,86.46
2022-09-28T03:34:52.681Z,86.54
2022-09-28T03:37:20.384Z,86.73
2022-09-28T03:39:48.259Z,86.48
2022-09-28T03:42:15.735Z,86.39
2022-09-28T03:44:43.868Z,86.27
2022-09-28T03:47:12.147Z,86.26
2022-09-28T03:49:39.775Z,86.67
2022-09-28T03:52:10.060Z,86.99
2022-09-28T03:54:38.651Z,87.08
2022-09-28T03:57:06.779Z,87.23
2022-09-28T03:59:37.468Z,87.57
2022-09-28T04:02:05.628Z,87.64
2022-09-28T04:04:33.451Z,87.84
2022-09-28T04:07:00.912Z,87.55
2022-09-28T04:09:28.399Z,87.57
2022-09-28T04:12:03.843Z,87.58
2022-09-28T04:14:32.865Z,87.58
2022-09-28T04:17:00.604Z,88.06
2022-09-28T04:19:28.228Z,88.06
2022-09-28T04:21:56.096Z,87.34
2022-09-28T04:24:23.941Z,86.98
2022-09-28T04:26:51.892Z,87.39
2022-09-28T04:29:19.996Z,87.49
2022-09-28T04:31:50.602Z,87.25
2022-09-28T04:34:20.775Z,87.08
2022-09-28T04:36:50.144Z,87.00
2022-09-28T04:39:19.536Z,86.88
2022-09-28T04:41:48.492Z,87.03
2022-09-28T04:44:16.606Z,86.73
2022-09-28T04:46:45.865Z,86.72
2022-09-28T04:49:14.887Z,87.00
2022-09-28T04:51:43.182Z,86.65
2022-09-28T04:54:10.723Z,86.58
2022-09-28T04:56:38.122Z,86.53
2022-09-28T04:59:06.183Z,86.54
2022-09-28T05:01:34.338Z,86.72
2022-09-28T05:04:06.009Z,86.92
2022-09-28T05:06:33.728Z,87.16
2022-09-28T05:09:01.768Z,87.30
2022-09-28T05:11:29.218Z,87.55
2022-09-28T05:13:57.562Z,87.89
2022-09-28T05:16:26.327Z,87.80
2022-09-28T05:18:55.954Z,87.66
2022-09-28T05:21:25.487Z,87.62
2022-09-28T05:23:56.107Z,87.87
2022-09-28T05:26:24.368Z,87.87
2022-09-28T05:28:51.816Z,88.11
2022-09-28T05:31:21.886Z,88.38
2022-09-28T05:33:50.687Z,88.34
2022-09-28T05:36:18.125Z,88.12
2022-09-28T05:38:46.246Z,87.86
2022-09-28T05:41:14.348Z,87.84
2022-09-28T05:43:41.892Z,87.85
2022-09-28T05:46:09.391Z,88.04
2022-09-28T05:48:37.944Z,88.19
2022-09-28T05:51:05.492Z,88.21
2022-09-28T05:53:32.953Z,88.05
2022-09-28T05:56:00.938Z,87.84
2022-09-28T05:58:30.506Z,87.89
2022-09-28T06:00:58.765Z,87.74
2022-09-28T06:03:27.177Z,87.55
2022-09-28T06:05:54.849Z,87.69
2022-09-28T06:08:22.590Z,88.35
2022-09-28T06:10:51.346Z,88.47
2022-09-28T06:13:18.820Z,88.33
2022-09-28T06:15:46.449Z,88.14
2022-09-28T06:18:15.043Z,88.00
2022-09-28T06:20:43.662Z,87.93
2022-09-28T06:23:12.794Z,87.99
2022-09-28T06:25:40.893Z,87.93
2022-09-28T06:28:15.295Z,87.65
2022-09-28T06:30:44.093Z,87.37
2022-09-28T06:33:13.832Z,87.39
2022-09-28T06:35:42.316Z,87.21
2022-09-28T06:38:10.540Z,87.16
2022-09-28T06:40:38.281Z,86.99
2022-09-28T06:43:10.653Z,87.21
2022-09-28T06:45:43.677Z,86.58
2022-09-28T06:48:11.711Z,86.71
2022-09-28T06:50:42.625Z,86.30
2022-09-28T06:53:13.883Z,85.49
2022-09-28T06:55:43.549Z,83.61
2022-09-28T06:58:13.523Z,82.31
2022-09-28T07:00:41.753Z,79.24
2022-09-28T07:03:13.707Z,78.26
2022-09-28T07:05:48.282Z,76.68
2022-09-28T07:08:17.375Z,75.57
2022-09-28T07:10:48.832Z,74.42
2022-09-28T07:13:45.508Z,73.93
2022-09-28T07:16:05.494Z,72.24
2022-09-28T07:18:33.018Z,70.25
2022-09-28T07:21:02.810Z,67.71
2022-09-28T07:23:32.392Z,67.70
2022-09-28T07:26:08.082Z,67.71
2022-09-28T07:28:38.197Z,66.63
2022-09-28T07:31:06.932Z,64.02
2022-09-28T07:33:34.680Z,64.44
2022-09-28T07:36:06.581Z,63.31
2022-09-28T07:38:34.615Z,64.04
2022-09-28T07:41:16.928Z,64.67
2022-09-28T07:43:45.552Z,61.38
2022-09-28T07:46:13.256Z,60.61
2022-09-28T07:48:42.840Z,61.83
2022-09-28T07:51:10.759Z,60.46
2022-09-28T07:53:38.519Z,60.27
2022-09-28T07:56:09.009Z,62.64
2022-09-28T07:58:39.040Z,61.48
2022-09-28T08:01:15.583Z,61.78
2022-09-28T08:03:45.476Z,62.58
2022-09-28T08:06:17.101Z,62.25
2022-09-28T08:08:45.153Z,62.80
2022-09-28T08:11:16.689Z,61.47
2022-09-28T08:13:46.501Z,61.33
2022-09-28T08:16:14.651Z,61.70
2022-09-28T08:18:44.096Z,61.18
2022-09-28T08:21:30.720Z,60.69
2022-09-28T08:23:58.816Z,58.66
2022-09-28T08:26:26.535Z,55.67
2022-09-28T08:28:53.997Z,55.94
2022-09-28T08:31:22.772Z,55.01
2022-09-28T08:33:53.751Z,54.75
2022-09-28T08:36:27.656Z,53.38
2022-09-28T08:38:56.219Z,53.19
2022-09-28T08:41:51.551Z,53.36
2022-09-28T08:44:24.546Z,54.25
2022-09-28T08:47:30.176Z,54.92
2022-09-28T08:50:03.605Z,55.01
2022-09-28T08:52:38.396Z,52.57
2022-09-28T08:55:06.512Z,52.72
2022-09-28T08:57:53.060Z,50.70
2022-09-28T09:00:33.281Z,51.37
2022-09-28T09:03:11.972Z,50.98
2022-09-28T09:05:56.284Z,51.69
2022-09-28T09:08:37.325Z,51.88
2022-09-28T09:11:38.380Z,52.62
2022-09-28T09:14:27.767Z,53.72
2022-09-28T09:17:13.827Z,53.84
2022-09-28T09:20:03.543Z,53.30
2022-09-28T09:22:42.033Z,54.44
2022-09-28T09:25:18.388Z,54.63
2022-09-28T09:27:59.244Z,55.14
2022-09-28T09:30:34.952Z,53.50
2022-09-28T09:33:24.276Z,53.80
2022-09-28T09:36:16.820Z,53.64
2022-09-28T09:38:48.952Z,53.24
2022-09-28T09:41:47.149Z,51.93
2022-09-28T09:44:35.101Z,52.22
2022-09-28T09:47:09.762Z,52.98
2022-09-28T09:49:44.001Z,52.40
2022-09-28T09:52:29.394Z,53.05
2022-09-28T09:55:40.707Z,55.27
2022-09-28T09:58:12.228Z,54.07
2022-09-28T10:00:45.739Z,51.53
2022-09-28T10:03:31.384Z,50.76
2022-09-28T10:06:11.871Z,51.06
2022-09-28T10:09:12.554Z,50.12
2022-09-28T10:11:44.928Z,50.37
2022-09-28T10:14:21.493Z,49.57
2022-09-28T10:16:52.583Z,50.90
2022-09-28T10:19:30.723Z,50.08
2022-09-28T10:22:05.847Z,49.96
2022-09-28T10:24:45.294Z,49.08
2022-09-28T10:27:20.067Z,50.90
2022-09-28T10:30:13.926Z,49.64
2022-09-28T10:32:46.662Z,51.65
2022-09-28T10:35:22.784Z,49.78
2022-09-28T10:38:01.805Z,49.52
2022-09-28T10:40:48.546Z,48.84
2022-09-28T10:43:21.863Z,49.54
2022-09-28T10:46:01.856Z,49.81
2022-09-28T10:48:32.586Z,49.16
2022-09-28T10:51:04.756Z,49.88
2022-09-28T10:53:33.563Z,51.04
2022-09-28T10:56:22.793Z,52.17
2022-09-28T10:58:52.149Z,51.81
2022-09-28T11:01:26.157Z,50.40
2022-09-28T11:04:03.593Z,50.25
2022-09-28T11:06:36.622Z,49.00
2022-09-28T11:09:07.978Z,50.18
2022-09-28T11:11:43.101Z,50.18
2022-09-28T11:14:32.587Z,50.78
2022-09-28T11:17:28.158Z,52.32
2022-09-28T11:20:01.613Z,50.58
2022-09-28T11:22:41.770Z,51.19
2022-09-28T11:25:21.308Z,50.33
2022-09-28T11:27:52.069Z,50.05
2022-09-28T11:30:31.158Z,49.87
2022-09-28T11:33:07.219Z,49.19
2022-09-28T11:36:00.257Z,49.65
2022-09-28T11:38:41.057Z,50.50
2022-09-28T11:41:30.424Z,50.09
2022-09-28T11:44:04.200Z,50.23
2022-09-28T11:47:02.294Z,49.96
2022-09-28T11:49:49.362Z,48.57
2022-09-28T11:52:28.220Z,50.68
2022-09-28T11:55:13.480Z,50.62
2022-09-28T11:57:45.194Z,48.58
2022-09-28T12:00:20.784Z,50.68
2022-09-28T12:02:55.988Z,50.21
2022-09-28T12:05:30.403Z,49.28
2022-09-28T12:08:06.832Z,49.73
2022-09-28T12:10:48.685Z,49.42
2022-09-28T12:13:22.603Z,50.64
2022-09-28T12:21:56.565Z,48.44
2022-09-28T12:24:37.522Z,50.64
2022-09-28T12:27:11.601Z,50.29
2022-09-28T12:29:52.720Z,51.48
2022-09-28T12:32:38.614Z,50.11
2022-09-28T12:35:16.138Z,50.59
2022-09-28T12:37:56.914Z,48.38
2022-09-28T12:40:58.679Z,47.52
2022-09-28T12:43:48.201Z,48.56
2022-09-28T12:46:31.175Z,48.59
2022-09-28T12:52:39.351Z,47.57
2022-09-28T12:55:30.777Z,49.70
2022-09-28T12:58:06.759Z,48.53
2022-09-28T13:01:00.445Z,49.92
2022-09-28T13:03:46.535Z,50.24
2022-09-28T13:06:35.014Z,51.21
2022-09-28T13:09:17.324Z,49.99
2022-09-28T13:12:24.838Z,49.92
2022-09-28T13:15:29.440Z,50.05
2022-09-28T13:18:23.101Z,49.75
2022-09-28T13:20:53.387Z,51.58
2022-09-28T13:23:25.641Z,51.41
2022-09-28T13:26:26.311Z,52.40
2022-09-28T13:29:00.488Z,51.20
2022-09-28T13:31:34.953Z,51.81
2022-09-28T13:34:06.222Z,50.55
2022-09-28T13:36:36.915Z,50.43
2022-09-28T13:39:24.418Z,48.24
2022-09-28T13:41:54.599Z,48.69
2022-09-28T13:44:44.531Z,49.72
2022-09-28T13:47:50.640Z,48.58
2022-09-28T13:50:26.958Z,50.11
2022-09-28T13:52:57.250Z,50.13
2022-09-28T13:55:33.736Z,50.67
2022-09-28T13:58:06.528Z,50.68
2022-09-28T14:00:45.574Z,49.87
2022-09-28T14:03:20.680Z,51.16
2022-09-28T14:06:11.514Z,52.11
2022-09-28T14:09:15.917Z,52.98
2022-09-28T14:11:58.089Z,53.22
2022-09-28T14:14:47.276Z,54.17
2022-09-28T14:17:23.638Z,53.54
2022-09-28T14:20:04.613Z,53.71
2022-09-28T14:22:44.469Z,55.16
2022-09-28T14:25:45.323Z,55.08
2022-09-28T14:28:41.143Z,54.73
2022-09-28T14:31:17.342Z,55.71
2022-09-28T14:33:56.889Z,56.72
2022-09-28T14:37:07.688Z,55.81
2022-09-28T14:39:57.129Z,56.30
2022-09-28T14:42:25.749Z,56.90
2022-09-28T14:45:06.324Z,57.97
2022-09-28T14:47:43.283Z,58.03
2022-09-28T14:50:28.339Z,58.96
2022-09-28T14:53:04.363Z,59.44
2022-09-28T14:55:39.067Z,59.99
2022-09-28T14:58:17.343Z,60.58
2022-09-28T15:00:46.937Z,60.87
2022-09-28T15:03:15.415Z,60.66
2022-09-28T15:05:47.121Z,61.59
2022-09-28T15:08:19.135Z,62.17
2022-09-28T15:10:49.368Z,62.76
2022-09-28T15:13:27.777Z,63.29
2022-09-28T15:16:03.837Z,63.50
2022-09-28T15:18:58.574Z,63.79
2022-09-28T15:21:34.487Z,64.36
2022-09-28T15:24:02.279Z,65.00
2022-09-28T15:26:32.988Z,65.50
2022-09-28T15:29:04.088Z,65.55
2022-09-28T15:31:35.868Z,65.79
2022-09-28T15:34:22.198Z,65.06
2022-09-28T15:36:50.025Z,64.66
2022-09-28T15:39:48.216Z,65.30
2022-09-28T15:42:17.384Z,65.46
2022-09-28T15:45:13.801Z,65.22
2022-09-28T15:47:43.697Z,65.53
2022-09-28T15:50:22.134Z,65.73
2022-09-28T15:52:56.594Z,65.63
2022-09-28T15:55:42.096Z,65.70
2022-09-28T15:58:13.337Z,66.31
2022-09-28T16:00:41.582Z,66.37
2022-09-28T16:03:09.379Z,66.61
2022-09-28T16:05:46.737Z,66.94
2022-09-28T16:08:26.250Z,67.49
2022-09-28T16:11:10.960Z,67.57
2022-09-28T16:14:06.301Z,67.21
2022-09-28T16:16:41.165Z,66.72
2022-09-28T16:19:26.066Z,67.33
2022-09-28T16:21:56.465Z,67.77
2022-09-28T16:24:31.692Z,68.17
2022-09-28T16:27:27.621Z,68.37
2022-09-28T16:30:16.776Z,68.70
2022-09-28T16:32:57.790Z,68.97
2022-09-28T16:35:32.760Z,68.89
2022-09-28T16:38:05.638Z,69.04
2022-09-28T16:40:33.984Z,69.35
2022-09-28T16:43:05.721Z,69.60
2022-09-28T16:45:35.302Z,69.61
2022-09-28T16:48:03.094Z,69.91
2022-09-28T16:50:30.513Z,71.32
2022-09-28T16:53:21.552Z,71.06
2022-09-28T16:55:49.888Z,70.29
2022-09-28T16:58:18.625Z,70.23
2022-09-28T17:00:46.108Z,70.28
2022-09-28T17:03:19.002Z,71.06
2022-09-28T17:05:48.104Z,71.46
2022-09-28T17:08:18.860Z,71.11
2022-09-28T17:11:23.377Z,70.78
2022-09-28T17:13:50.006Z,70.77
2022-09-28T17:16:28.209Z,72.15
2022-09-28T17:19:24.167Z,72.72
2022-09-28T17:21:52.899Z,72.70
2022-09-28T17:24:20.950Z,72.70
2022-09-28T17:26:51.131Z,72.79
2022-09-28T17:29:19.344Z,73.30
2022-09-28T17:31:47.808Z,72.78
2022-09-28T17:34:16.362Z,71.81
2022-09-28T17:36:45.198Z,72.03
2022-09-28T17:39:15.362Z,71.79
2022-09-28T17:41:42.980Z,71.41
2022-09-28T17:44:10.864Z,72.06
2022-09-28T17:46:45.939Z,73.83
2022-09-28T17:49:13.572Z,72.09
2022-09-28T17:51:41.440Z,72.27
2022-09-28T17:54:08.887Z,72.76
2022-09-28T17:56:37.429Z,74.08
2022-09-28T17:59:12.712Z,74.50
2022-09-28T18:01:40.763Z,74.01
2022-09-28T18:04:19.146Z,72.86
2022-09-28T18:06:51.948Z,73.73
2022-09-28T18:09:25.215Z,74.02
2022-09-28T18:12:00.575Z,74.28
2022-09-28T18:14:28.663Z,74.21
2022-09-28T18:16:56.635Z,74.46
2022-09-28T18:19:27.457Z,74.00
2022-09-28T18:21:59.061Z,73.99
2022-09-28T18:24:26.879Z,74.53
2022-09-28T18:26:54.427Z,74.48
2022-09-28T18:29:22.259Z,74.77
2022-09-28T18:31:50.086Z,74.82
2022-09-28T18:34:17.890Z,75.59
2022-09-28T18:36:48.424Z,75.89
2022-09-28T18:39:15.978Z,75.91
2022-09-28T18:41:43.464Z,75.85
2022-09-28T18:44:11.251Z,76.02
2022-09-28T18:46:39.404Z,75.99
2022-09-28T18:49:07.222Z,76.52
2022-09-28T18:51:34.998Z,76.50
2022-09-28T18:54:07.204Z,76.95
2022-09-28T18:56:37.408Z,76.94
2022-09-28T18:59:12.177Z,77.40
2022-09-28T19:01:41.997Z,77.54
2022-09-28T19:04:11.134Z,77.02
2022-09-28T19:06:40.816Z,77.21
2022-09-28T19:09:09.430Z,77.26
2022-09-28T19:11:37.037Z,77.84
2022-09-28T19:14:04.508Z,77.91
2022-09-28T19:16:34.113Z,78.09
2022-09-28T19:19:02.818Z,78.62
2022-09-28T19:21:30.777Z,78.75
2022-09-28T19:24:03.413Z,78.79
2022-09-28T19:26:33.084Z,79.24
2022-09-28T19:29:02.162Z,79.10
2022-09-28T19:31:30.897Z,79.26
2022-09-28T19:33:58.810Z,79.32
2022-09-28T19:36:28.701Z,79.14
2022-09-28T19:39:02.223Z,80.11
2022-09-28T19:41:43.339Z,80.09
2022-09-28T19:44:15.447Z,79.90
2022-09-28T19:46:43.413Z,79.72
2022-09-28T19:49:14.026Z,79.59
2022-09-28T19:51:56.535Z,79.78
2022-09-28T19:54:36.343Z,79.66
2022-09-28T19:57:07.856Z,79.95
2022-09-28T19:59:37.176Z,80.12
2022-09-28T20:02:07.032Z,79.47
2022-09-28T20:04:34.981Z,80.00
2022-09-28T20:07:03.247Z,80.11
2022-09-28T20:09:31.917Z,79.70
2022-09-28T20:11:59.774Z,79.90
2022-09-28T20:14:32.897Z,79.53
2022-09-28T20:17:04.204Z,79.37
2022-09-28T20:19:31.623Z,79.47
2022-09-28T20:22:03.234Z,79.80
2022-09-28T20:24:32.051Z,79.87
2022-09-28T20:26:59.946Z,80.09
2022-09-28T20:29:33.806Z,80.28
2022-09-28T20:32:04.005Z,80.26
2022-09-28T20:34:34.046Z,80.26
2022-09-28T20:37:01.876Z,80.21
2022-09-28T20:39:29.618Z,80.84
2022-09-28T20:41:57.469Z,80.61
2022-09-28T20:44:25.184Z,80.47
2022-09-28T20:46:52.720Z,80.63
2022-09-28T20:49:20.349Z,80.72
2022-09-28T20:51:48.142Z,80.67
2022-09-28T20:54:15.612Z,80.77
2022-09-28T20:56:43.028Z,80.75
2022-09-28T20:59:12.082Z,80.92
2022-09-28T21:01:40.849Z,80.48
2022-09-28T21:04:09.941Z,80.19
2022-09-28T21:06:39.712Z,80.84
2022-09-28T21:09:08.834Z,81.23
2022-09-28T21:11:36.817Z,81.21
2022-09-28T21:14:06.587Z,81.34
2022-09-28T21:16:35.396Z,80.98
2022-09-28T21:19:03.776Z,80.96
2022-09-28T21:21:32.009Z,81.65
2022-09-28T21:23:59.578Z,81.23
2022-09-28T21:26:29.512Z,81.06
2022-09-28T21:28:59.961Z,81.56
2022-09-28T21:31:30.584Z,81.51
2022-09-28T21:33:58.847Z,81.52
2022-09-28T21:36:26.385Z,81.19
2022-09-28T21:38:56.105Z,81.64
2022-09-28T21:41:25.231Z,81.55
2022-09-28T21:43:52.689Z,81.58
2022-09-28T21:46:20.287Z,81.00
2022-09-28T21:48:54.247Z,80.87
2022-09-28T21:51:21.893Z,80.63
2022-09-28T21:53:49.716Z,81.45
2022-09-28T21:56:17.573Z,81.77
2022-09-28T21:58:45.007Z,81.94
2022-09-28T22:01:19.599Z,82.27
2022-09-28T22:03:50.585Z,81.15
2022-09-28T22:06:20.454Z,81.18
2022-09-28T22:08:49.372Z,82.68
2022-09-28T22:11:22.129Z,82.44
2022-09-28T22:13:52.802Z,83.03
2022-09-28T22:16:22.993Z,83.73
2022-09-28T22:18:50.995Z,83.75
2022-09-28T22:21:39.070Z,83.72
2022-09-28T22:24:07.690Z,83.53
2022-09-28T22:26:37.238Z,82.88
2022-09-28T22:29:07.451Z,83.23
2022-09-28T22:31:38.381Z,83.46
2022-09-28T22:34:07.288Z,83.97
2022-09-28T22:36:35.557Z,83.64
2022-09-28T22:39:03.123Z,83.51
2022-09-28T22:41:31.814Z,83.71
2022-09-28T22:43:59.840Z,83.64
2022-09-28T22:46:29.138Z,83.36
2022-09-28T22:48:58.792Z,83.34
2022-09-28T22:51:29.550Z,84.20
2022-09-28T22:53:58.007Z,84.51
2022-09-28T22:56:25.817Z,84.31
2022-09-28T22:58:53.372Z,83.77
2022-09-28T23:01:23.802Z,83.03
2022-09-28T23:03:52.754Z,83.05
2022-09-28T23:06:23.267Z,83.83
2022-09-28T23:08:51.828Z,84.24
2022-09-28T23:11:19.992Z,84.46
2022-09-28T23:13:51.630Z,85.14
2022-09-28T23:16:20.085Z,83.67
2022-09-28T23:18:49.321Z,83.10
2022-09-28T23:21:20.247Z,83.53
2022-09-28T23:23:55.741Z,83.40
2022-09-28T23:26:26.227Z,84.20
2022-09-28T23:28:54.672Z,84.27
2022-09-28T23:31:24.544Z,84.20
2022-09-28T23:33:56.385Z,83.89
2022-09-28T23:36:24.360Z,84.17
2022-09-28T23:38:51.790Z,84.44
2022-09-28T23:41:19.397Z,84.84
2022-09-28T23:43:47.245Z,85.20
2022-09-28T23:46:19.776Z,85.06
2022-09-28T23:48:49.618Z,85.04
2022-09-28T23:51:17.363Z,84.69
2022-09-28T23:53:45.358Z,84.04
2022-09-28T23:56:14.567Z,83.79
2022-09-28T23:58:42.885Z,84.10
